createdAt,value
2018-04-23T00:01:49.664Z,15.50
2018-04-23T00:04:17.534Z,15.40
2018-04-23T00:06:45.398Z,15.40
2018-04-23T00:09:13.345Z,15.50
2018-04-23T00:11:41.241Z,15.70
2018-04-23T00:14:09.208Z,15.80
2018-04-23T00:16:37.069Z,15.90
2018-04-23T00:19:04.932Z,15.80
2018-04-23T00:21:32.695Z,15.90
2018-04-23T00:24:00.672Z,15.90
2018-04-23T00:26:28.641Z,16.00
2018-04-23T00:28:56.499Z,15.90
2018-04-23T00:31:24.676Z,15.90
2018-04-23T00:33:52.641Z,15.90
2018-04-23T00:36:20.402Z,15.90
2018-04-23T00:38:48.374Z,16.00
2018-04-23T00:41:16.239Z,16.10
2018-04-23T00:43:44.105Z,16.10
2018-04-23T00:46:13.103Z,16.20
2018-04-23T00:48:40.961Z,16.20
2018-04-23T00:51:08.838Z,16.20
2018-04-23T00:53:39.765Z,16.10
2018-04-23T00:56:07.735Z,16.00
2018-04-23T00:58:35.608Z,16.00
2018-04-23T01:01:03.578Z,16.10
2018-04-23T01:03:31.452Z,16.20
2018-04-23T01:06:00.124Z,16.20
2018-04-23T01:08:28.089Z,16.10
2018-04-23T01:10:55.956Z,16.30
2018-04-23T01:13:23.936Z,16.30
2018-04-23T01:15:51.794Z,16.30
2018-04-23T01:18:19.672Z,16.40
2018-04-23T01:20:47.637Z,16.40
2018-04-23T01:23:15.846Z,16.30
2018-04-23T01:25:43.755Z,16.30
2018-04-23T01:28:11.641Z,16.00
2018-04-23T01:30:41.040Z,16.10
2018-04-23T01:33:09.011Z,16.10
2018-04-23T01:35:37.101Z,15.90
2018-04-23T01:38:05.878Z,16.00
2018-04-23T01:40:33.738Z,16.00
2018-04-23T01:43:02.527Z,16.00
2018-04-23T01:45:30.848Z,16.00
2018-04-23T01:47:58.769Z,16.10
2018-04-23T01:50:26.647Z,16.10
2018-04-23T01:52:54.618Z,16.10
2018-04-23T01:55:22.473Z,16.00
2018-04-23T01:57:50.548Z,16.00
2018-04-23T02:00:18.410Z,16.00
2018-04-23T02:02:46.384Z,16.00
2018-04-23T02:05:14.352Z,16.00
2018-04-23T02:07:42.421Z,15.90
2018-04-23T02:10:10.288Z,15.90
2018-04-23T02:12:38.154Z,15.80
2018-04-23T02:15:06.133Z,15.90
2018-04-23T02:17:33.991Z,15.70
2018-04-23T02:20:01.857Z,15.70
2018-04-23T02:22:29.725Z,15.60
2018-04-23T02:24:57.807Z,15.60
2018-04-23T02:27:25.667Z,15.50
2018-04-23T02:29:54.046Z,15.50
2018-04-23T02:32:21.912Z,15.50
2018-04-23T02:34:49.787Z,15.60
2018-04-23T02:37:17.649Z,15.50
2018-04-23T02:39:46.986Z,15.30
2018-04-23T02:42:15.633Z,15.30
2018-04-23T02:44:43.498Z,15.30
2018-04-23T02:47:11.366Z,15.40
2018-04-23T02:49:39.344Z,15.40
2018-04-23T02:52:07.316Z,15.40
2018-04-23T02:54:36.001Z,15.10
2018-04-23T02:57:03.960Z,15.10
2018-04-23T02:59:31.830Z,15.10
2018-04-23T03:01:59.706Z,15.10
2018-04-23T03:04:27.565Z,14.90
2018-04-23T03:06:56.248Z,15.00
2018-04-23T03:09:24.014Z,15.00
2018-04-23T03:11:52.093Z,15.00
2018-04-23T03:14:19.961Z,15.20
2018-04-23T03:16:47.829Z,15.20
2018-04-23T03:19:15.689Z,15.30
2018-04-23T03:21:43.762Z,15.30
2018-04-23T03:24:11.727Z,15.40
2018-04-23T03:26:39.595Z,15.20
2018-04-23T03:29:07.463Z,15.30
2018-04-23T03:31:36.055Z,15.40
2018-04-23T03:34:04.017Z,15.40
2018-04-23T03:36:31.896Z,15.40
2018-04-23T03:39:01.290Z,15.40
2018-04-23T03:41:29.163Z,15.40
2018-04-23T03:43:57.124Z,15.40
2018-04-23T03:46:25.140Z,15.30
2018-04-23T03:48:53.069Z,15.40
2018-04-23T03:51:20.935Z,15.00
2018-04-23T03:53:48.898Z,15.10
2018-04-23T03:56:16.765Z,15.10
2018-04-23T03:58:44.741Z,15.10
2018-04-23T04:01:12.545Z,15.00
2018-04-23T04:03:40.469Z,15.00
2018-04-23T04:06:08.540Z,15.10
2018-04-23T04:08:36.308Z,15.00
2018-04-23T04:11:04.173Z,15.00
2018-04-23T04:13:43.819Z,14.70
2018-04-23T04:16:23.565Z,14.80
2018-04-23T04:18:52.569Z,15.00
2018-04-23T04:21:20.432Z,14.90
2018-04-23T04:23:48.290Z,14.90
2018-04-23T04:26:16.163Z,15.00
2018-04-23T04:28:44.850Z,15.10
2018-04-23T04:31:12.919Z,15.00
2018-04-23T04:33:40.784Z,14.90
2018-04-23T04:36:08.655Z,15.00
2018-04-23T04:38:36.519Z,15.20
2018-04-23T04:41:04.390Z,15.10
2018-04-23T04:43:32.180Z,15.20
2018-04-23T04:46:00.773Z,15.30
2018-04-23T04:48:29.284Z,15.10
2018-04-23T04:50:57.045Z,15.10
2018-04-23T04:53:24.848Z,15.20
2018-04-23T04:55:52.645Z,15.10
2018-04-23T04:58:20.584Z,14.80
2018-04-23T05:00:48.402Z,14.80
2018-04-23T05:03:16.211Z,14.70
2018-04-23T05:05:44.062Z,14.70
2018-04-23T05:08:11.873Z,14.60
2018-04-23T05:10:40.453Z,14.60
2018-04-23T05:13:14.817Z,14.60
2018-04-23T05:15:43.741Z,14.60
2018-04-23T05:18:11.535Z,14.70
2018-04-23T05:20:40.058Z,14.60
2018-04-23T05:23:08.024Z,14.70
2018-04-23T05:25:35.785Z,14.80
2018-04-23T05:28:03.548Z,14.90
2018-04-23T05:30:31.390Z,14.90
2018-04-23T05:32:59.155Z,15.40
2018-04-23T05:35:27.678Z,18.20
2018-04-23T05:37:55.467Z,18.20
2018-04-23T05:40:23.222Z,19.00
2018-04-23T05:42:51.465Z,19.60
2018-04-23T05:45:19.277Z,19.70
2018-04-23T05:47:47.051Z,19.80
2018-04-23T05:50:14.823Z,20.10
2018-04-23T05:52:42.637Z,19.30
2018-04-23T05:55:10.533Z,19.80
2018-04-23T05:57:38.343Z,20.70
2018-04-23T06:00:06.854Z,20.70
2018-04-23T06:02:34.649Z,20.70
2018-04-23T06:05:02.462Z,21.80
2018-04-23T06:07:30.349Z,22.90
2018-04-23T06:09:58.149Z,23.00
2018-04-23T06:12:25.908Z,23.90
2018-04-23T06:14:53.792Z,23.20
2018-04-23T06:17:21.565Z,24.00
2018-04-23T06:19:49.374Z,24.60
2018-04-23T06:22:17.213Z,24.70
2018-04-23T06:24:45.782Z,24.00
2018-04-23T06:27:13.756Z,24.00
2018-04-23T06:29:42.273Z,25.50
2018-04-23T06:32:10.848Z,25.70
2018-04-23T06:34:38.641Z,25.70
2018-04-23T06:37:06.478Z,25.90
2018-04-23T06:39:34.288Z,26.00
2018-04-23T06:42:02.024Z,25.60
2018-04-23T06:44:29.801Z,25.20
2018-04-23T06:46:57.625Z,23.30
2018-04-23T06:49:26.249Z,21.10
2018-04-23T06:51:54.003Z,21.00
2018-04-23T06:54:22.245Z,19.70
2018-04-23T06:56:50.829Z,18.60
2018-04-23T06:59:19.398Z,18.10
2018-04-23T07:01:47.241Z,18.10
2018-04-23T07:04:15.028Z,18.10
2018-04-23T07:06:42.994Z,18.30
2018-04-23T07:09:10.748Z,19.60
2018-04-23T07:11:38.487Z,21.40
2018-04-23T07:14:06.274Z,23.30
2018-04-23T07:16:34.151Z,24.80
2018-04-23T07:19:02.448Z,25.50
2018-04-23T07:21:30.269Z,25.90
2018-04-23T07:23:58.025Z,26.00
2018-04-23T07:26:25.934Z,25.30
2018-04-23T07:28:53.684Z,25.50
2018-04-23T07:31:21.429Z,26.30
2018-04-23T07:33:49.226Z,27.10
2018-04-23T07:36:16.985Z,27.60
2018-04-23T07:38:44.781Z,28.00
2018-04-23T07:41:13.344Z,28.60
2018-04-23T07:43:41.090Z,28.50
2018-04-23T07:46:08.960Z,29.10
2018-04-23T07:48:36.768Z,29.70
2018-04-23T07:51:05.285Z,30.90
2018-04-23T07:53:33.076Z,30.90
2018-04-23T07:56:00.868Z,31.50
2018-04-23T07:58:28.627Z,32.00
2018-04-23T08:00:56.541Z,31.20
2018-04-23T08:03:24.292Z,30.40
2018-04-23T08:05:52.069Z,30.10
2018-04-23T08:08:19.849Z,30.90
2018-04-23T08:10:47.639Z,30.40
2018-04-23T08:13:15.390Z,29.40
2018-04-23T08:15:43.256Z,29.90
2018-04-23T08:18:11.048Z,30.80
2018-04-23T08:20:38.794Z,30.40
2018-04-23T08:23:06.582Z,29.30
2018-04-23T08:25:34.335Z,27.50
2018-04-23T08:28:03.691Z,27.60
2018-04-23T08:30:31.592Z,27.60
2018-04-23T08:32:59.331Z,27.60
2018-04-23T08:35:27.177Z,27.30
2018-04-23T08:37:55.760Z,26.20
2018-04-23T08:40:24.305Z,25.50
2018-04-23T08:42:52.106Z,25.50
2018-04-23T08:45:20.638Z,25.50
2018-04-23T08:47:48.379Z,25.40
2018-04-23T08:50:16.551Z,25.50
2018-04-23T08:52:44.304Z,25.70
2018-04-23T08:55:12.109Z,25.60
2018-04-23T08:57:39.918Z,25.10
2018-04-23T09:00:08.613Z,25.90
2018-04-23T09:02:37.130Z,25.40
2018-04-23T09:05:04.888Z,25.40
2018-04-23T09:07:32.678Z,25.00
2018-04-23T09:10:00.456Z,24.30
2018-04-23T09:12:28.237Z,23.80
2018-04-23T09:14:56.844Z,23.00
2018-04-23T09:17:26.263Z,22.50
2018-04-23T09:19:54.025Z,22.40
2018-04-23T09:22:21.874Z,21.80
2018-04-23T09:24:51.016Z,21.70
2018-04-23T09:27:18.783Z,21.70
2018-04-23T09:29:46.519Z,23.20
2018-04-23T09:32:14.413Z,24.60
2018-04-23T09:34:42.200Z,25.80
2018-04-23T09:37:10.012Z,25.50
2018-04-23T09:39:37.835Z,24.50
2018-04-23T09:42:05.594Z,25.40
2018-04-23T09:44:33.434Z,25.60
2018-04-23T09:47:01.223Z,26.40
2018-04-23T09:49:28.999Z,27.30
2018-04-23T09:51:56.836Z,27.80
2018-04-23T09:54:24.610Z,28.20
2018-04-23T09:56:52.498Z,28.30
2018-04-23T09:59:20.252Z,29.00
2018-04-23T10:01:50.792Z,28.80
2018-04-23T10:04:21.984Z,27.60
2018-04-23T10:06:49.716Z,26.60
2018-04-23T10:09:18.250Z,24.90
2018-04-23T10:11:46.061Z,24.90
2018-04-23T10:14:13.817Z,24.20
2018-04-23T10:16:41.613Z,23.40
2018-04-23T10:19:10.212Z,22.60
2018-04-23T10:21:37.939Z,22.60
2018-04-23T10:24:05.758Z,22.80
2018-04-23T10:26:33.557Z,23.10
2018-04-23T10:29:01.465Z,23.60
2018-04-23T10:31:29.984Z,23.80
2018-04-23T10:33:57.794Z,23.80
2018-04-23T10:36:26.362Z,23.60
2018-04-23T10:38:54.119Z,23.60
2018-04-23T10:41:21.997Z,23.70
2018-04-23T10:43:49.755Z,23.50
2018-04-23T10:46:17.572Z,22.80
2018-04-23T10:48:45.700Z,22.30
2018-04-23T10:51:13.558Z,21.90
2018-04-23T10:53:41.400Z,21.80
2018-04-23T10:56:09.710Z,22.10
2018-04-23T10:58:37.500Z,22.70
2018-04-23T11:01:06.013Z,23.40
2018-04-23T11:03:34.166Z,23.30
2018-04-23T11:06:02.724Z,24.90
2018-04-23T11:08:30.469Z,24.80
2018-04-23T11:10:58.304Z,24.90
2018-04-23T11:13:26.031Z,25.70
2018-04-23T11:15:54.608Z,26.30
2018-04-23T11:18:23.184Z,26.30
2018-04-23T11:20:51.013Z,26.30
2018-04-23T11:23:18.919Z,26.50
2018-04-23T11:25:48.515Z,25.70
2018-04-23T11:28:16.635Z,25.60
2018-04-23T11:30:44.457Z,25.70
2018-04-23T11:33:12.197Z,24.90
2018-04-23T11:35:39.992Z,25.70
2018-04-23T11:38:07.777Z,25.60
2018-04-23T11:40:36.325Z,24.10
2018-04-23T11:43:04.546Z,24.10
2018-04-23T11:45:32.337Z,23.70
2018-04-23T11:48:00.082Z,24.60
2018-04-23T11:50:27.859Z,25.00
2018-04-23T11:52:55.770Z,25.70
2018-04-23T11:55:23.639Z,26.30
2018-04-23T11:57:51.457Z,26.20
2018-04-23T12:00:19.381Z,26.30
2018-04-23T12:02:47.447Z,25.70
2018-04-23T12:05:15.204Z,25.70
2018-04-23T12:07:42.948Z,25.80
2018-04-23T12:10:10.812Z,25.50
2018-04-23T12:12:38.658Z,25.10
2018-04-23T12:15:06.593Z,23.50
2018-04-23T12:17:34.401Z,23.70
2018-04-23T12:20:02.160Z,24.20
2018-04-23T12:22:29.937Z,24.70
2018-04-23T12:24:57.707Z,25.40
2018-04-23T12:27:25.484Z,26.30
2018-04-23T12:29:53.225Z,26.40
2018-04-23T12:32:21.067Z,26.90
2018-04-23T12:34:49.656Z,27.60
2018-04-23T12:37:18.212Z,27.70
2018-04-23T12:39:45.990Z,27.70
2018-04-23T12:42:14.671Z,26.30
2018-04-23T12:44:43.180Z,26.10
2018-04-23T12:47:10.953Z,26.10
2018-04-23T12:49:38.870Z,25.30
2018-04-23T12:52:06.666Z,24.90
2018-04-23T12:54:35.234Z,25.90
2018-04-23T12:57:03.049Z,25.90
2018-04-23T12:59:30.842Z,26.50
2018-04-23T13:01:59.371Z,26.50
2018-04-23T13:04:28.040Z,25.90
2018-04-23T13:06:56.567Z,26.00
2018-04-23T13:09:24.306Z,25.90
2018-04-23T13:11:52.934Z,25.90
2018-04-23T13:14:20.690Z,25.90
2018-04-23T13:16:48.633Z,25.80
2018-04-23T13:19:16.383Z,26.30
2018-04-23T13:21:44.888Z,25.90
2018-04-23T13:24:13.053Z,25.90
2018-04-23T13:26:40.856Z,25.80
2018-04-23T13:29:08.666Z,25.90
2018-04-23T13:31:37.243Z,25.90
2018-04-23T13:34:05.824Z,24.60
2018-04-23T13:36:34.446Z,23.90
2018-04-23T13:39:02.356Z,23.90
2018-04-23T13:41:30.336Z,23.30
2018-04-23T13:43:58.338Z,22.90
2018-04-23T13:46:26.094Z,22.70
2018-04-23T13:48:54.661Z,22.60
2018-04-23T13:51:22.408Z,22.60
2018-04-23T13:53:50.379Z,22.70
2018-04-23T13:56:18.248Z,22.80
2018-04-23T13:58:46.114Z,22.90
2018-04-23T14:01:14.090Z,22.90
2018-04-23T14:03:42.050Z,22.70
2018-04-23T14:06:09.921Z,22.70
2018-04-23T14:08:37.992Z,22.70
2018-04-23T14:11:05.871Z,22.50
2018-04-23T14:13:34.549Z,22.60
2018-04-23T14:16:02.598Z,22.50
2018-04-23T14:18:30.493Z,22.30
2018-04-23T14:20:58.352Z,22.00
2018-04-23T14:23:26.188Z,22.00
2018-04-23T14:25:53.939Z,22.20
2018-04-23T14:28:21.859Z,22.30
2018-04-23T14:30:49.755Z,22.70
2018-04-23T14:33:18.265Z,22.80
2018-04-23T14:35:46.074Z,22.80
2018-04-23T14:38:13.876Z,23.10
2018-04-23T14:40:41.619Z,23.70
2018-04-23T14:43:10.286Z,24.30
2018-04-23T14:45:38.151Z,24.30
2018-04-23T14:48:06.028Z,24.00
2018-04-23T14:50:33.890Z,24.00
2018-04-23T14:53:01.753Z,23.60
2018-04-23T14:55:29.730Z,23.40
2018-04-23T14:57:57.594Z,23.80
2018-04-23T15:00:25.978Z,23.60
2018-04-23T15:02:53.841Z,23.30
2018-04-23T15:05:21.643Z,23.10
2018-04-23T15:07:50.285Z,23.10
2018-04-23T15:10:18.156Z,23.00
2018-04-23T15:12:46.021Z,22.90
2018-04-23T15:15:13.831Z,22.50
2018-04-23T15:17:42.412Z,22.30
2018-04-23T15:20:10.288Z,22.30
2018-04-23T15:22:38.052Z,22.30
2018-04-23T15:25:05.804Z,22.00
2018-04-23T15:27:34.461Z,21.00
2018-04-23T15:30:03.150Z,20.90
2018-04-23T15:32:31.017Z,20.80
2018-04-23T15:34:58.881Z,20.70
2018-04-23T15:37:28.278Z,20.70
2018-04-23T15:39:56.968Z,20.60
2018-04-23T15:42:25.649Z,20.70
2018-04-23T15:44:53.628Z,20.70
2018-04-23T15:47:21.692Z,20.60
2018-04-23T15:49:50.283Z,20.80
2018-04-23T15:52:18.144Z,20.80
2018-04-23T15:54:45.940Z,20.80
2018-04-23T15:57:14.549Z,21.00
2018-04-23T15:59:42.329Z,21.00
2018-04-23T16:02:10.088Z,21.10
2018-04-23T16:04:37.866Z,21.10
2018-04-23T16:07:05.657Z,21.30
2018-04-23T16:09:33.461Z,21.20
2018-04-23T16:12:02.309Z,20.70
2018-04-23T16:14:30.185Z,20.70
2018-04-23T16:16:58.864Z,20.50
2018-04-23T16:19:26.940Z,20.50
2018-04-23T16:21:54.804Z,20.20
2018-04-23T16:24:23.372Z,19.40
2018-04-23T16:26:51.288Z,19.30
2018-04-23T16:29:19.871Z,19.30
2018-04-23T16:31:48.398Z,19.20
2018-04-23T16:34:16.344Z,19.10
2018-04-23T16:36:44.254Z,19.10
2018-04-23T16:39:12.122Z,19.00
2018-04-23T16:41:39.985Z,18.90
2018-04-23T16:44:08.167Z,18.80
2018-04-23T16:46:36.031Z,18.70
2018-04-23T16:49:03.991Z,18.60
2018-04-23T16:51:31.969Z,18.50
2018-04-23T16:54:00.136Z,18.40
2018-04-23T16:56:28.105Z,18.30
2018-04-23T16:58:56.385Z,18.20
2018-04-23T17:01:24.289Z,18.20
2018-04-23T17:03:52.080Z,18.10
2018-04-23T17:06:19.873Z,17.90
2018-04-23T17:08:47.738Z,18.00
2018-04-23T17:11:15.604Z,17.90
2018-04-23T17:13:43.582Z,18.00
2018-04-23T17:16:11.451Z,17.90
2018-04-23T17:18:41.049Z,17.90
2018-04-23T17:21:10.449Z,17.90
2018-04-23T17:23:41.593Z,17.90
2018-04-23T17:26:10.172Z,17.80
2018-04-23T17:28:41.200Z,17.70
2018-04-23T17:31:09.563Z,17.60
2018-04-23T17:33:37.475Z,17.50
2018-04-23T17:36:06.651Z,17.30
2018-04-23T17:38:37.157Z,17.30
2018-04-23T17:41:05.775Z,17.40
2018-04-23T17:43:33.731Z,17.20
2018-04-23T17:46:02.159Z,17.20
2018-04-23T17:48:30.077Z,17.00
2018-04-23T17:50:58.150Z,16.90
2018-04-23T17:53:26.427Z,16.80
2018-04-23T17:55:54.698Z,16.60
2018-04-23T17:58:22.871Z,16.50
2018-04-23T18:00:51.048Z,16.30
2018-04-23T18:03:18.913Z,16.30
2018-04-23T18:05:46.877Z,16.10
2018-04-23T18:08:15.716Z,15.90
2018-04-23T18:10:43.633Z,15.80
2018-04-23T18:13:11.498Z,15.60
2018-04-23T18:15:39.593Z,15.50
2018-04-23T18:18:08.254Z,15.40
2018-04-23T18:20:36.646Z,15.30
2018-04-23T18:23:07.089Z,15.10
2018-04-23T18:25:36.817Z,15.00
2018-04-23T18:28:06.389Z,14.90
2018-04-23T18:30:34.243Z,14.80
2018-04-23T18:33:02.823Z,14.80
2018-04-23T18:35:30.789Z,14.60
2018-04-23T18:38:00.210Z,14.60
2018-04-23T18:40:29.990Z,14.40
2018-04-23T18:42:57.868Z,14.40
2018-04-23T18:45:28.312Z,14.30
2018-04-23T18:47:57.805Z,14.10
2018-04-23T18:50:27.307Z,14.10
2018-04-23T18:52:57.111Z,14.00
2018-04-23T18:55:25.385Z,14.00
2018-04-23T18:57:53.366Z,13.90
2018-04-23T19:00:21.219Z,13.90
2018-04-23T19:02:49.085Z,13.80
2018-04-23T19:05:16.962Z,13.70
2018-04-23T19:07:44.925Z,13.70
2018-04-23T19:10:12.788Z,13.60
2018-04-23T19:12:41.007Z,13.50
2018-04-23T19:15:11.787Z,13.40
2018-04-23T19:17:40.687Z,13.40
2018-04-23T19:20:08.762Z,13.40
2018-04-23T19:22:39.196Z,13.40
2018-04-23T19:25:09.515Z,13.40
2018-04-23T19:27:38.660Z,13.40
2018-04-23T19:30:08.844Z,13.30
2018-04-23T19:32:36.784Z,13.30
2018-04-23T19:35:06.818Z,13.20
2018-04-23T19:37:36.221Z,13.10
2018-04-23T19:40:04.784Z,13.10
2018-04-23T19:42:34.717Z,13.10
2018-04-23T19:45:06.735Z,13.00
2018-04-23T19:47:37.395Z,13.00
2018-04-23T19:50:06.226Z,13.00
2018-04-23T19:52:34.762Z,12.70
2018-04-23T19:55:02.644Z,12.60
2018-04-23T19:57:30.598Z,12.50
2018-04-23T19:59:58.462Z,12.30
2018-04-23T20:02:26.440Z,12.10
2018-04-23T20:04:54.407Z,11.90
2018-04-23T20:07:22.276Z,11.70
2018-04-23T20:09:50.758Z,11.50
2018-04-23T20:12:18.713Z,11.40
2018-04-23T20:14:46.514Z,11.30
2018-04-23T20:17:15.170Z,11.10
2018-04-23T20:19:43.128Z,11.10
2018-04-23T20:22:11.813Z,11.00
2018-04-23T20:24:39.679Z,10.90
2018-04-23T20:27:07.646Z,10.80
2018-04-23T20:29:35.516Z,10.90
2018-04-23T20:32:03.351Z,10.90
2018-04-23T20:34:31.252Z,10.90
2018-04-23T20:36:59.108Z,10.80
2018-04-23T20:39:26.915Z,10.70
2018-04-23T20:41:54.840Z,10.40
2018-04-23T20:44:22.798Z,10.30
2018-04-23T20:46:50.675Z,10.20
2018-04-23T20:49:18.440Z,10.10
2018-04-23T20:51:46.341Z,10.00
2018-04-23T20:54:14.999Z,9.90
2018-04-23T20:56:42.856Z,9.80
2018-04-23T20:59:10.766Z,9.90
2018-04-23T21:01:39.413Z,10.00
2018-04-23T21:04:07.219Z,10.00
2018-04-23T21:06:36.069Z,10.10
2018-04-23T21:09:04.036Z,10.10
2018-04-23T21:11:31.912Z,10.10
2018-04-23T21:13:59.872Z,10.10
2018-04-23T21:16:27.684Z,10.10
2018-04-23T21:18:55.607Z,10.10
2018-04-23T21:21:23.475Z,10.00
2018-04-23T21:23:51.346Z,10.00
2018-04-23T21:26:19.415Z,10.00
2018-04-23T21:28:47.385Z,9.90
2018-04-23T21:31:15.261Z,9.90
2018-04-23T21:33:43.575Z,9.70
2018-04-23T21:36:12.219Z,9.60
2018-04-23T21:38:40.739Z,9.60
2018-04-23T21:41:09.384Z,9.50
2018-04-23T21:43:37.331Z,9.50
2018-04-23T21:46:06.554Z,9.70
2018-04-23T21:48:34.371Z,9.70
2018-04-23T21:51:02.287Z,9.80
2018-04-23T21:53:30.272Z,9.90
2018-04-23T21:55:58.944Z,9.80
2018-04-23T21:58:26.747Z,9.80
2018-04-23T22:00:55.396Z,9.70
2018-04-23T22:03:24.088Z,9.60
2018-04-23T22:05:52.053Z,9.60
2018-04-23T22:08:21.735Z,9.90
2018-04-23T22:10:50.964Z,10.00
2018-04-23T22:13:18.930Z,10.00
2018-04-23T22:15:47.615Z,10.00
2018-04-23T22:18:15.523Z,10.00
2018-04-23T22:20:43.454Z,10.00
2018-04-23T22:23:11.423Z,9.70
2018-04-23T22:25:39.301Z,9.70
2018-04-23T22:28:07.166Z,9.60
2018-04-23T22:30:35.126Z,9.60
2018-04-23T22:33:02.993Z,9.50
2018-04-23T22:35:31.681Z,9.40
2018-04-23T22:37:59.660Z,9.30
2018-04-23T22:40:27.517Z,9.30
2018-04-23T22:42:55.387Z,9.20
2018-04-23T22:45:23.365Z,9.30
2018-04-23T22:47:51.376Z,9.30
2018-04-23T22:50:20.122Z,9.50
2018-04-23T22:52:47.980Z,9.50
2018-04-23T22:55:16.882Z,9.50
2018-04-23T22:57:44.749Z,9.70
2018-04-23T23:00:13.424Z,9.70
2018-04-23T23:02:41.292Z,9.70
2018-04-23T23:05:09.160Z,9.70
2018-04-23T23:07:37.036Z,9.70
2018-04-23T23:10:06.234Z,9.80
2018-04-23T23:12:34.096Z,9.80
2018-04-23T23:15:01.900Z,10.00
2018-04-23T23:17:30.763Z,10.20
2018-04-23T23:19:59.332Z,10.40
2018-04-23T23:22:27.208Z,10.40
2018-04-23T23:24:55.068Z,10.40
2018-04-23T23:27:22.977Z,10.50
2018-04-23T23:29:51.554Z,10.40
2018-04-23T23:32:20.311Z,10.50
2018-04-23T23:34:48.184Z,10.40
2018-04-23T23:37:16.052Z,10.50
2018-04-23T23:39:44.115Z,10.60
2018-04-23T23:42:11.984Z,10.70
2018-04-23T23:44:39.850Z,10.80
2018-04-23T23:47:07.922Z,10.80
2018-04-23T23:49:35.788Z,11.00
2018-04-23T23:52:03.658Z,11.10
2018-04-23T23:54:31.525Z,11.00
2018-04-23T23:56:59.393Z,11.10
2018-04-23T23:59:27.190Z,11.00
